Weather observations for the past three days for
Beaufort Smith Field
Metric (Imperial)
Date Time (edt) Wind (kph) Vis. (km) Weather Sky Cond. Temperature (ºC) Relative Humidity Wind Chill (°C) Heat Index (°C) Pressure Precipitation (cm)
Air Dwpt 6 hour altimeter (cm) sea level (mb) 1 hr 3 hr 6 hr
Max. Min.
03 16:58 S 20 16.09 Fair CLR 30 25 75% 36 76.25 1016.4
03 15:58 S 19 16.09 Fair CLR 30.6 25 72% 37 76.28 1016.8
03 14:58 SW 20 16.09 Fair CLR 30 24.4 72% 36 76.33 1017.5
03 13:58 SW 17 16.09 A Few Clouds FEW017 30.6 25.6 31.1 27.8 75% 38 76.35 1018.1
03 12:58 SW 15 16.09 Fair CLR 30 25 75% 36 76.38 1018.2
03 11:58 S 15 16.09 Fair CLR 30.6 24.4 70% 36 76.4 1018.6
03 10:58 S 13 16.09 Fair CLR 30 24.4 72% 36 76.4 1018.7
03 09:58 SW 13 16.09 Partly Cloudy SCT019 30 25 75% 36 76.38 1018.4
03 08:58 SW 11 16.09 Fair CLR 28.9 24.4 77% 34 76.4 1018.5
03 07:58 SW 7 16.09 Fair CLR 27.8 23.9 27.8 26.1 79% 32 76.38 1018.2
03 06:58 Calm 16.09 Mostly Cloudy BKN050 26.7 25 90% 30 76.35 1017.9
03 05:58 SW 6 16.09 Fair CLR 26.7 25 90% 30 76.3 1017.4
03 04:58 SW 6 16.09 A Few Clouds FEW016 26.7 24.4 87% 30 76.3 1017.1
03 03:58 SW 9 16.09 Fair CLR 27.2 25 88% 31 76.28 1016.9
03 02:58 SW 11 16.09 Fair CLR 26.7 25 90% 30 76.25 1016.6
03 01:58 SW 7 16.09 Fair CLR 27.2 25 28.3 27.2 88% 31 76.28 1016.8
03 00:58 SW 9 16.09 Fair CLR 27.8 25 85% 32 76.3 1017.3
02 23:58 SW 15 16.09 Fair CLR 27.8 25 85% 32 76.3 1017.3
02 22:58 SW 11 16.09 Fair CLR 27.8 24.4 82% 32 76.3 1017.3
02 21:58 S 19 16.09 Fair CLR 27.8 24.4 82% 32 76.3 1017.3
02 20:58 S 15 16.09 Fair CLR 27.8 24.4 82% 32 76.28 1017.0
02 19:58 S 11 16.09 Fair CLR 27.8 24.4 31.7 27.8 82% 32 76.33 1017.5
02 18:58 S 15 16.09 Fair CLR 28.9 24.4 77% 34 76.28 1017.0
02 17:58 S 17 16.09 Fair CLR 30 23.9 70% 35 76.28 1017.0
02 16:58 S 17 16.09 Fair CLR 30.6 24.4 70% 36 76.25 1016.7
02 15:58 S 19 16.09 Fair CLR 31.1 23.9 66% 37 76.3 1017.1
02 14:58 S 19 16.09 Fair CLR 30.6 25 72% 37 76.33 1017.5
02 13:58 S 17 16.09 Fair CLR 31.7 23.9 31.7 27.2 63% 37 76.35 1017.8
02 12:58 SW 11 16.09 Fair CLR 31.1 23.9 66% 37 76.35 1017.9
02 11:58 SW 9 16.09 Fair CLR 30.6 23.9 67% 36 76.35 1018.1
02 10:58 SW 17 16.09 Fair CLR 29.4 25 77% 35 76.38 1018.2
02 09:58 SW 17 16.09 Fair CLR 29.4 25 77% 35 76.35 1017.9
02 08:58 W 13 16.09 Fair CLR 28.3 25 82% 33 76.38 1018.2
02 07:58 W 7 16.09 Fair CLR 27.2 25.6 27.2 25.6 91% 31 76.38 1018.2
02 06:58 W 6 16.09 Fair CLR 25.6 24.4 93% 27 76.35 1018.0
02 05:58 W 7 16.09 NULL NULL 26.7 24.4 87% 30 76.35 1017.9
02 04:58 SW 9 16.09 Fair CLR 27.2 25 88% 31 76.33 1017.6
02 03:58 SW 11 16.09 Fair CLR 26.7 24.4 87% 30 76.33 1017.6
02 02:58 SW 11 16.09 Fair CLR 27.2 24.4 85% 31 76.35 1017.8
02 01:58 SW 11 16.09 Fair CLR 26.7 23.9 27.2 26.7 85% 29 76.35 1018.0
02 00:58 SW 11 16.09 Fair CLR 27.2 24.4 85% 31 76.35 1017.9
01 23:58 SW 13 16.09 Fair CLR 27.2 23.9 82% 30 76.33 1017.5
01 22:58 S 15 16.09 Fair CLR 27.2 23.9 82% 30 76.3 1017.1
01 21:58 S 13 16.09 Fair CLR 27.2 23.9 82% 30 76.28 1017.0
01 20:58 S 15 16.09 Fair CLR 27.2 23.3 79% 30 76.3 1017.1
01 19:58 S 13 16.09 Fair CLR 27.2 23.3 30.6 27.2 79% 30 76.3 1017.1
01 18:58 S 15 16.09 Fair CLR 28.3 23.9 77% 32 76.3 1017.2
01 17:58 S 15 16.09 Fair CLR 28.9 23.3 72% 33 76.3 1017.3
01 16:58 S 19 16.09 Fair CLR 29.4 23.3 70% 34 76.3 1017.3
01 15:58 S 17 16.09 Fair CLR 30 22.2 63% 33 76.33 1017.5
01 14:58 S 15 16.09 Fair CLR 30 22.8 65% 34 76.35 1017.9
01 13:58 S 13 16.09 Fair CLR 30 23.3 31.1 25.6 67% 34 76.38 1018.1
01 12:58 S 13 16.09 Fair CLR 29.4 23.3 70% 34 76.4 1018.5
01 11:58 Vrbl 6 16.09 Fair CLR 30.6 22.8 63% 35 76.4 1018.7
01 10:58 NW 9 16.09 Fair CLR 28.9 22.8 70% 32 76.45 1019.2
01 09:58 NW 9 16.09 Fair CLR 26.7 24.4 87% 30 76.45 1019.2
01 08:58 NW 7 16.09 Fair CLR 26.1 25 94% 28 76.43 1019.0
01 07:58 Calm 16.09 Fair CLR 25.6 24.4 25.6 22.8 93% 27 76.43 1018.8
01 06:58 Calm 16.09 Fair CLR 23.3 23.3 100% 76.38 1018.3
01 05:58 Calm 14.48 Fair CLR 23.3 23.3 100% 76.35 1018.0
01 04:58 Calm 2.82 Fog/Mist CLR 22.8 22.8 100% 76.35 1017.9
01 03:58 Calm 16.09 Fair CLR 23.9 23.3 96% 23 76.38 1018.2
01 02:58 Calm 16.09 A Few Clouds FEW014 24.4 23.3 94% 24 76.38 1018.1
01 01:58 Calm 16.09 A Few Clouds FEW016 24.4 23.3 27.2 23.3 94% 24 76.4 1018.5
01 00:58 Calm 16.09 Fair CLR 24.4 23.3 94% 24 76.43 1019.0
31 23:58 Calm 16.09 Fair CLR 24.4 23.3 94% 24 76.43 1019.0
31 22:58 Calm 16.09 Fair CLR 25 23.3 90% 26 76.43 1019.0
31 21:58 SE 6 16.09 Fair CLR 25.6 23.3 87% 27 76.43 1018.9
31 20:58 SE 7 16.09 Fair CLR 26.7 23.9 85% 29 76.4 1018.4
31 18:58 SE 7 16.09 Fair CLR 28.3 22.2 70% 31 76.38 1018.4
31 17:58 SE 13 16.09 Fair CLR 28.9 23.3 72% 33 76.38 1018.3
Date Time (edt) Wind (kph) Vis. (km) Weather Sky Cond. Air Dwpt Max. Min. Relative Humidity Wind Chill (°C) Heat Index (°C) altimeter (cm) sea level (mb) 1 hr 3 hr 6 hr
6 hour
Temperature (ºC) Pressure Precipitation (cm)